Massie, Ohio
Current Conditions -  °F | °C
As of 4:54 PM on Saturday 20 Dec 2014 (Local Time) from KILN Reporting Station
Haze Haze  
Wind Chill: 30°   Ceiling: 1500
Heat Index: 30°   Visibility: 4mi
Dew Point: 23°   Wind: 3mph
Humidity: 75%   Direction: 20°NNE
Pressure: 30.25"   Gusts: NA
Location:  39.5055°N, 83.9937°W
Report Text: KILN 202154Z AUTO 02003KT 4SM HZ OVC015 M01/M05 A3025 RMK AO2 SLP271 T10111050
Loading
Personal Weather Stations






























Interactive Weather Map New forecast layout! Learn more

10-Day Weather Forecast

Advertisements
Track Severe Weather on mobile